Archival Weather

Aeroparque Jorge Newbery

Buenos Aires, Argentina (SABE)

Report from: Thursday, September 21, 2023 2:00 AM -03
Current time: Saturday, March 2, 2024 8:05 AM -03

Current weather – Weather history – Daily summaries
Weather forecast

Present weatherLight drizzle, mist
Temperature16.0°C (60.8°F)
Dew point15.0°C (59.0°F)
Winds 7 kts (3.6 m/s, 8.1 mph) East-Southeast (110°)
Visibility3280.8 ft. (1 km)
Clouds Ceiling: Overcast 100 ft. (30 m)
Altimeter29.88 in.Hg (1012 mB)
Relative humidity94 %
Density altitude396 ft. (121 m)
Remarks No significant changes expected in the next two hours
Flight conditions Low Instrument Meteorological Conditions
Raw dataSABE 210500Z 11007KT 1000 R13/P2000N -DZ BR OVC001 16/15 Q1012 NOSIG RMK PP999
An error has occurred. This application may no longer respond until reloaded. Reload 🗙